createdAt,value
2023-12-31T00:02:19.085Z,100226.06
2023-12-31T00:06:27.205Z,100207.59
2023-12-31T00:15:11.394Z,100175.94
2023-12-31T00:19:33.489Z,100196.72
2023-12-31T00:28:14.607Z,100198.50
2023-12-31T00:32:29.666Z,100169.97
2023-12-31T00:36:48.609Z,100167.88
2023-12-31T00:45:35.661Z,100151.66
2023-12-31T00:49:43.512Z,100153.34
2023-12-31T00:53:51.359Z,100133.25
2023-12-31T00:57:53.159Z,100131.06
2023-12-31T01:02:02.454Z,100140.09
2023-12-31T01:06:11.418Z,100129.88
2023-12-31T01:10:33.501Z,100121.34
2023-12-31T01:19:14.520Z,100109.72
2023-12-31T01:23:29.384Z,100087.59
2023-12-31T01:27:52.335Z,100060.28
2023-12-31T01:32:14.379Z,100062.63
2023-12-31T01:36:23.418Z,100056.97
2023-12-31T01:40:31.497Z,100020.66
2023-12-31T01:44:32.964Z,100022.34
2023-12-31T01:48:47.408Z,100027.22
2023-12-31T01:52:55.498Z,100012.94
2023-12-31T01:57:04.435Z,100005.72
2023-12-31T02:01:33.480Z,99972.50
2023-12-31T02:05:48.579Z,99973.38
2023-12-31T02:09:57.386Z,99958.25
2023-12-31T02:14:05.389Z,99942.72
2023-12-31T02:18:23.401Z,99936.22
2023-12-31T02:22:45.372Z,99912.81
2023-12-31T02:27:07.505Z,99890.34
2023-12-31T02:31:22.486Z,99872.88
2023-12-31T02:35:37.460Z,99854.72
2023-12-31T02:39:59.529Z,99854.03
2023-12-31T02:44:14.480Z,99863.88
2023-12-31T02:48:29.509Z,99857.91
2023-12-31T02:52:44.555Z,99861.69
2023-12-31T03:01:11.473Z,99853.25
2023-12-31T03:05:13.686Z,99825.16
2023-12-31T03:09:22.440Z,99845.91
2023-12-31T03:13:30.498Z,99834.38
2023-12-31T03:17:32.266Z,99831.75
2023-12-31T03:30:35.546Z,99818.00
2023-12-31T03:34:50.539Z,99821.63
2023-12-31T03:38:59.505Z,99807.63
2023-12-31T03:43:01.274Z,99794.31
2023-12-31T03:47:16.454Z,99785.59
2023-12-31T03:51:46.591Z,99778.53
2023-12-31T03:56:01.559Z,99766.03
2023-12-31T04:00:11.433Z,99745.97
2023-12-31T04:04:14.345Z,99738.88
2023-12-31T04:08:22.527Z,99730.72
2023-12-31T04:12:30.441Z,99722.81
2023-12-31T04:16:38.579Z,99711.16
2023-12-31T04:25:19.688Z,99696.19
2023-12-31T04:34:04.651Z,99667.38
2023-12-31T04:38:19.359Z,99654.38
2023-12-31T04:42:34.476Z,99657.13
2023-12-31T04:46:35.960Z,99640.38
2023-12-31T04:55:10.465Z,99615.31
2023-12-31T04:59:18.548Z,99612.00
2023-12-31T05:03:51.777Z,99600.66
2023-12-31T05:08:06.358Z,99587.19
2023-12-31T05:12:14.474Z,99588.84
2023-12-31T05:16:29.451Z,99582.75
2023-12-31T05:20:37.540Z,99578.03
2023-12-31T05:24:45.372Z,99566.97
2023-12-31T05:29:07.418Z,99564.84
2023-12-31T05:33:09.134Z,99547.41
2023-12-31T05:37:24.390Z,99544.94
2023-12-31T05:41:26.047Z,99539.50
2023-12-31T05:45:34.462Z,99542.16
2023-12-31T05:49:43.521Z,99526.06
2023-12-31T05:53:58.426Z,99518.81
2023-12-31T05:58:06.396Z,99523.13
2023-12-31T06:02:21.454Z,99508.16
2023-12-31T06:06:36.524Z,99498.44
2023-12-31T06:10:44.582Z,99494.84
2023-12-31T06:14:52.489Z,99493.03
2023-12-31T06:19:00.499Z,99492.06
2023-12-31T06:23:08.524Z,99472.13
2023-12-31T06:27:30.436Z,99463.91
2023-12-31T06:31:38.429Z,99473.44
2023-12-31T06:35:46.448Z,99464.41
2023-12-31T06:39:54.801Z,99446.66
2023-12-31T06:44:02.723Z,99436.78
2023-12-31T06:48:10.615Z,99455.59
2023-12-31T06:52:12.455Z,99449.50
2023-12-31T07:00:39.689Z,99437.16
2023-12-31T07:04:47.462Z,99440.63
2023-12-31T07:08:49.233Z,99430.75
2023-12-31T07:13:04.803Z,99427.91
2023-12-31T07:17:19.491Z,99414.22
2023-12-31T07:21:37.395Z,99406.63
2023-12-31T07:25:45.605Z,99418.34
2023-12-31T07:29:53.446Z,99408.44
2023-12-31T07:34:01.650Z,99404.34
2023-12-31T07:38:16.403Z,99387.72
2023-12-31T07:42:31.386Z,99391.34
2023-12-31T07:46:39.513Z,99394.63
2023-12-31T07:50:47.415Z,99395.13
2023-12-31T07:54:49.389Z,99401.72
2023-12-31T07:59:04.571Z,99390.59
2023-12-31T08:03:12.691Z,99381.56
2023-12-31T08:07:20.610Z,99364.63
2023-12-31T08:11:29.437Z,99338.69
2023-12-31T08:15:37.453Z,99360.03
2023-12-31T08:19:59.534Z,99338.06
2023-12-31T08:24:07.631Z,99355.91
2023-12-31T08:28:15.735Z,99351.31
2023-12-31T08:41:27.461Z,99332.84
2023-12-31T08:45:44.515Z,99327.09
2023-12-31T08:49:46.413Z,99308.81
2023-12-31T08:54:01.486Z,99300.13
2023-12-31T08:58:16.488Z,99286.59
2023-12-31T09:02:31.548Z,99269.78
2023-12-31T09:06:54.874Z,99268.78
2023-12-31T09:11:03.505Z,99251.66
2023-12-31T09:15:13.655Z,99252.09
2023-12-31T09:19:21.491Z,99231.31
2023-12-31T09:23:22.964Z,99224.38
2023-12-31T09:27:31.665Z,99216.44
2023-12-31T09:31:53.540Z,99203.88
2023-12-31T09:36:29.619Z,99249.56
2023-12-31T09:40:44.943Z,99285.38
2023-12-31T09:44:54.625Z,99332.41
2023-12-31T09:49:02.494Z,99376.59
2023-12-31T09:53:11.449Z,99385.69
2023-12-31T09:57:20.717Z,99391.28
2023-12-31T10:01:36.456Z,99368.72
2023-12-31T10:05:52.574Z,99343.97
2023-12-31T10:10:08.417Z,99343.47
2023-12-31T10:14:37.386Z,99338.34
2023-12-31T10:18:59.564Z,99292.84
2023-12-31T10:23:09.056Z,99261.81
2023-12-31T10:27:31.461Z,99230.78
2023-12-31T10:31:33.490Z,99255.69
2023-12-31T10:35:41.456Z,99237.75
2023-12-31T10:39:49.439Z,99252.09
2023-12-31T10:43:58.634Z,99271.72
2023-12-31T10:48:05.572Z,99229.50
2023-12-31T10:52:24.447Z,99220.28
2023-12-31T11:00:53.487Z,99221.59
2023-12-31T11:05:08.603Z,99263.47
2023-12-31T11:13:44.461Z,99309.66
2023-12-31T11:18:17.680Z,99304.88
2023-12-31T11:22:29.609Z,99308.03
2023-12-31T11:31:04.551Z,99305.72
2023-12-31T11:35:56.469Z,99313.28
2023-12-31T11:40:19.548Z,99308.19
2023-12-31T11:44:47.696Z,99322.22
2023-12-31T11:49:02.594Z,99307.53
2023-12-31T11:53:04.964Z,99291.88
2023-12-31T11:57:21.429Z,99302.94
2023-12-31T12:01:23.034Z,99299.13
2023-12-31T12:05:31.511Z,99288.72
2023-12-31T12:09:46.407Z,99279.16
2023-12-31T12:13:55.097Z,99275.72
2023-12-31T12:18:03.552Z,99273.91
2023-12-31T12:22:11.653Z,99245.19
2023-12-31T12:26:19.427Z,99250.94
2023-12-31T12:30:28.897Z,99279.31
2023-12-31T12:34:37.565Z,99378.75
2023-12-31T12:38:39.473Z,99391.53
2023-12-31T12:42:47.496Z,99389.66
2023-12-31T12:46:50.884Z,99410.91
2023-12-31T12:50:59.627Z,99418.44
2023-12-31T12:55:07.554Z,99416.94
2023-12-31T12:59:09.578Z,99412.78
2023-12-31T13:03:24.693Z,99414.81
2023-12-31T13:07:32.805Z,99399.19
2023-12-31T13:11:48.437Z,99401.06
2023-12-31T13:15:50.273Z,99427.06
2023-12-31T13:20:02.451Z,99417.59
2023-12-31T13:24:04.151Z,99419.41
2023-12-31T13:28:29.419Z,99417.53
2023-12-31T13:32:44.558Z,99413.97
2023-12-31T13:36:59.526Z,99404.84
2023-12-31T13:41:07.586Z,99397.16
2023-12-31T13:45:15.470Z,99381.13
2023-12-31T13:49:16.926Z,99381.25
2023-12-31T13:53:25.484Z,99392.00
2023-12-31T13:57:33.422Z,99379.47
2023-12-31T14:01:42.425Z,99390.91
2023-12-31T14:05:44.006Z,99398.47
2023-12-31T14:09:52.824Z,99401.53
2023-12-31T14:14:00.573Z,99424.19
2023-12-31T14:18:10.559Z,99419.66
2023-12-31T14:26:41.624Z,99438.75
2023-12-31T14:31:03.461Z,99447.34
2023-12-31T14:35:13.452Z,99460.88
2023-12-31T14:39:28.441Z,99454.47
2023-12-31T14:43:51.517Z,99475.22
2023-12-31T14:47:59.667Z,99469.53
2023-12-31T14:52:07.498Z,99459.63
2023-12-31T14:56:09.033Z,99455.06
2023-12-31T15:00:37.472Z,99457.22
2023-12-31T15:05:01.055Z,99449.47
2023-12-31T15:09:15.456Z,99439.94
2023-12-31T15:13:23.459Z,99427.75
2023-12-31T15:17:26.687Z,99411.66
2023-12-31T15:22:17.457Z,99379.75
2023-12-31T15:26:39.583Z,99357.56
2023-12-31T15:30:47.561Z,99319.94
2023-12-31T15:34:55.528Z,99303.66
2023-12-31T15:39:10.526Z,99289.50
2023-12-31T15:43:18.429Z,99271.59
2023-12-31T15:47:20.214Z,99265.00
2023-12-31T15:51:28.555Z,99262.88
2023-12-31T15:55:36.511Z,99264.84
2023-12-31T15:59:38.364Z,99281.28
2023-12-31T16:03:46.475Z,99271.75
2023-12-31T16:07:55.462Z,99268.63
2023-12-31T16:12:03.404Z,99264.50
2023-12-31T16:16:12.575Z,99267.81
2023-12-31T16:20:20.598Z,99252.53
2023-12-31T16:24:28.418Z,99263.22
2023-12-31T16:28:54.650Z,99269.16
2023-12-31T16:33:16.514Z,99221.34
2023-12-31T16:41:41.462Z,99220.13
2023-12-31T16:46:03.467Z,99222.75
2023-12-31T16:50:19.448Z,99230.53
2023-12-31T16:54:34.449Z,99213.25
2023-12-31T16:58:49.565Z,99228.75
2023-12-31T17:02:57.443Z,99222.50
2023-12-31T17:07:05.453Z,99208.97
2023-12-31T17:11:06.905Z,99182.63
2023-12-31T17:15:20.427Z,99186.44
2023-12-31T17:19:42.537Z,99172.91
2023-12-31T17:23:50.447Z,99225.47
2023-12-31T17:27:58.777Z,99217.38
2023-12-31T17:32:07.560Z,99231.88
2023-12-31T17:36:31.460Z,99243.91
2023-12-31T17:40:46.521Z,99233.69
2023-12-31T17:45:02.578Z,99263.81
2023-12-31T17:49:24.532Z,99278.28
2023-12-31T17:53:40.499Z,99274.66
2023-12-31T17:57:42.299Z,99287.84
2023-12-31T18:01:57.618Z,99290.72
2023-12-31T18:06:12.550Z,99317.56
2023-12-31T18:10:20.437Z,99303.13
2023-12-31T18:14:21.859Z,99316.81
2023-12-31T18:18:29.673Z,99304.31
2023-12-31T18:22:37.478Z,99314.19
2023-12-31T18:26:54.444Z,99338.72
2023-12-31T18:31:17.750Z,99341.34
2023-12-31T18:35:25.441Z,99341.50
2023-12-31T18:39:27.003Z,99348.13
2023-12-31T18:43:35.565Z,99365.91
2023-12-31T18:47:50.519Z,99374.47
2023-12-31T18:52:06.608Z,99341.44
2023-12-31T19:00:46.569Z,99354.69
2023-12-31T19:04:54.494Z,99342.84
2023-12-31T19:09:04.009Z,99331.34
2023-12-31T19:13:12.536Z,99333.66
2023-12-31T19:17:20.598Z,99338.41
2023-12-31T19:21:28.462Z,99342.03
2023-12-31T19:25:36.460Z,99343.16
2023-12-31T19:30:01.492Z,99355.69
2023-12-31T19:34:16.556Z,99375.44
2023-12-31T19:38:24.498Z,99382.38
2023-12-31T19:42:25.920Z,99375.94
2023-12-31T19:46:40.844Z,99366.88
2023-12-31T19:50:42.419Z,99375.31
2023-12-31T19:59:02.854Z,99450.34
2023-12-31T20:03:10.463Z,99447.03
2023-12-31T20:07:36.480Z,99431.75
2023-12-31T20:11:58.542Z,99406.09
2023-12-31T20:15:59.954Z,99418.75
2023-12-31T20:20:08.562Z,99399.31
2023-12-31T20:24:32.470Z,99391.94
2023-12-31T20:28:41.521Z,99397.88
2023-12-31T20:32:49.488Z,99446.44
2023-12-31T20:37:09.435Z,99508.16
2023-12-31T20:41:17.470Z,99530.13
2023-12-31T20:45:27.638Z,99562.66
2023-12-31T20:49:36.477Z,99574.09
2023-12-31T20:53:44.524Z,99571.91
2023-12-31T21:02:07.462Z,99562.66
2023-12-31T21:06:15.525Z,99550.16
2023-12-31T21:10:17.168Z,99535.00
2023-12-31T21:14:25.478Z,99547.63
2023-12-31T21:18:27.056Z,99539.03
2023-12-31T21:22:35.570Z,99527.59
2023-12-31T21:31:07.558Z,99522.97
2023-12-31T21:35:22.501Z,99518.88
2023-12-31T21:39:30.463Z,99532.19
2023-12-31T21:43:38.464Z,99529.56
2023-12-31T21:47:46.783Z,99522.47
2023-12-31T21:51:48.342Z,99523.47
2023-12-31T21:56:18.607Z,99523.16
2023-12-31T22:00:59.611Z,99536.13
2023-12-31T22:05:14.657Z,99528.09
2023-12-31T22:09:22.523Z,99533.34
2023-12-31T22:13:24.052Z,99530.72
2023-12-31T22:17:32.748Z,99546.69
2023-12-31T22:21:41.467Z,99542.56
2023-12-31T22:25:49.638Z,99546.47
2023-12-31T22:30:15.489Z,99550.47
2023-12-31T22:34:23.969Z,99563.25
2023-12-31T22:38:31.472Z,99554.84
2023-12-31T22:42:40.598Z,99564.31
2023-12-31T22:46:48.504Z,99573.03
2023-12-31T22:50:49.995Z,99574.69
2023-12-31T22:54:58.496Z,99565.22
2023-12-31T22:59:15.528Z,99567.84
2023-12-31T23:03:37.691Z,99570.34
2023-12-31T23:07:45.539Z,99575.31
2023-12-31T23:12:00.583Z,99575.00
2023-12-31T23:16:15.655Z,99582.22
2023-12-31T23:20:23.675Z,99578.28
2023-12-31T23:24:45.512Z,99575.84
2023-12-31T23:29:01.648Z,99573.00
2023-12-31T23:33:03.532Z,99583.41
2023-12-31T23:37:11.721Z,99577.31
2023-12-31T23:41:19.665Z,99581.44
2023-12-31T23:45:21.040Z,99575.03
2023-12-31T23:49:43.511Z,99573.53
2023-12-31T23:54:05.537Z,99592.28
2023-12-31T23:58:20.580Z,99576.81
